sensor_id;sensor_type;location;lat;lon;timestamp;P1;P4;P2;P0;N10;N4;N25;N1;N05;TS
78570;SPS30;67861;51.966;5.672;2023-12-29T00:01:32;3.6;3.3;2.8;2.0;;;;1.0;57.0;
78570;SPS30;67861;51.966;5.672;2023-12-29T00:04:02;3.8;3.6;2.9;2.1;;;;1.0;56.0;
78570;SPS30;67861;51.966;5.672;2023-12-29T00:06:30;4.0;3.7;3.0;2.0;;;;1.0;56.0;
78570;SPS30;67861;51.966;5.672;2023-12-29T00:08:59;3.8;3.5;2.8;2.0;;;;1.0;59.0;
78570;SPS30;67861;51.966;5.672;2023-12-29T00:11:28;4.8;4.4;3.5;2.4;;;;1.0;61.0;
78570;SPS30;67861;51.966;5.672;2023-12-29T00:13:56;4.3;4.0;3.3;2.4;;;;1.0;60.0;
78570;SPS30;67861;51.966;5.672;2023-12-29T00:16:25;5.3;4.9;4.1;2.9;;;;1.0;61.0;
78570;SPS30;67861;51.966;5.672;2023-12-29T00:18:55;4.4;4.0;3.3;2.3;;;;1.0;60.0;
78570;SPS30;67861;51.966;5.672;2023-12-29T00:21:24;4.9;4.5;3.6;2.5;;;;1.0;57.0;
78570;SPS30;67861;51.966;5.672;2023-12-29T00:23:52;4.7;4.3;3.5;2.4;;;;1.0;58.0;
78570;SPS30;67861;51.966;5.672;2023-12-29T00:26:22;4.7;4.3;3.5;2.3;;;;1.0;60.0;
78570;SPS30;67861;51.966;5.672;2023-12-29T00:28:50;3.7;3.4;2.8;1.9;;;;1.0;64.0;
78570;SPS30;67861;51.966;5.672;2023-12-29T00:31:19;3.5;3.2;2.6;1.8;;;;1.0;66.0;
78570;SPS30;67861;51.966;5.672;2023-12-29T00:33:48;5.7;5.2;4.2;2.7;;;;1.0;65.0;
78570;SPS30;67861;51.966;5.672;2023-12-29T00:36:18;3.7;3.4;2.8;1.9;;;;1.0;64.0;
78570;SPS30;67861;51.966;5.672;2023-12-29T00:38:48;4.1;3.8;3.2;2.3;;;;1.0;62.0;
78570;SPS30;67861;51.966;5.672;2023-12-29T00:41:18;4.0;3.8;3.2;2.3;;;;1.0;59.0;
78570;SPS30;67861;51.966;5.672;2023-12-29T00:43:46;3.5;3.3;2.8;2.1;;;;1.0;56.0;
78570;SPS30;67861;51.966;5.672;2023-12-29T00:46:15;4.0;3.7;3.1;2.3;;;;1.0;56.0;
78570;SPS30;67861;51.966;5.672;2023-12-29T00:48:44;3.6;3.4;2.9;2.2;;;;1.0;57.0;
78570;SPS30;67861;51.966;5.672;2023-12-29T00:51:12;4.5;4.1;3.5;2.5;;;;1.0;64.0;
78570;SPS30;67861;51.966;5.672;2023-12-29T00:53:41;4.7;4.4;3.6;2.6;;;;1.0;63.0;
78570;SPS30;67861;51.966;5.672;2023-12-29T00:56:11;3.6;3.3;2.7;1.9;;;;1.0;61.0;
78570;SPS30;67861;51.966;5.672;2023-12-29T00:58:40;4.4;4.0;3.3;2.4;;;;1.0;59.0;
78570;SPS30;67861;51.966;5.672;2023-12-29T01:01:08;3.7;3.4;2.9;2.1;;;;1.0;56.0;
78570;SPS30;67861;51.966;5.672;2023-12-29T01:03:37;4.3;4.0;3.4;2.5;;;;1.0;56.0;
78570;SPS30;67861;51.966;5.672;2023-12-29T01:06:06;4.3;4.0;3.3;2.4;;;;1.0;55.0;
78570;SPS30;67861;51.966;5.672;2023-12-29T01:08:36;3.6;3.3;2.8;2.0;;;;1.0;53.0;
78570;SPS30;67861;51.966;5.672;2023-12-29T01:11:05;3.9;3.6;3.0;2.2;;;;1.0;53.0;
78570;SPS30;67861;51.966;5.672;2023-12-29T01:13:33;4.9;4.5;3.8;2.7;;;;1.0;53.0;
78570;SPS30;67861;51.966;5.672;2023-12-29T01:16:02;4.7;4.3;3.6;2.6;;;;1.0;52.0;
78570;SPS30;67861;51.966;5.672;2023-12-29T01:18:31;4.3;4.1;3.5;2.6;;;;1.0;54.0;
78570;SPS30;67861;51.966;5.672;2023-12-29T01:21:00;4.6;4.3;3.6;2.7;;;;1.0;56.0;
78570;SPS30;67861;51.966;5.672;2023-12-29T01:23:28;4.8;4.5;3.7;2.7;;;;1.0;58.0;
78570;SPS30;67861;51.966;5.672;2023-12-29T01:25:57;3.8;3.6;3.1;2.4;;;;1.0;65.0;
78570;SPS30;67861;51.966;5.672;2023-12-29T01:28:26;4.2;3.9;3.4;2.5;;;;1.0;67.0;
78570;SPS30;67861;51.966;5.672;2023-12-29T01:30:54;3.5;3.3;2.9;2.2;;;;1.0;69.0;
78570;SPS30;67861;51.966;5.672;2023-12-29T01:33:23;3.7;3.4;2.9;2.2;;;;1.0;70.0;
78570;SPS30;67861;51.966;5.672;2023-12-29T01:35:51;3.2;3.0;2.6;2.0;;;;1.0;73.0;
78570;SPS30;67861;51.966;5.672;2023-12-29T01:38:20;3.9;3.6;3.1;2.3;;;;1.0;72.0;
78570;SPS30;67861;51.966;5.672;2023-12-29T01:40:48;4.4;4.1;3.5;2.6;;;;1.0;69.0;
78570;SPS30;67861;51.966;5.672;2023-12-29T01:43:17;3.6;3.4;2.9;2.2;;;;1.0;66.0;
78570;SPS30;67861;51.966;5.672;2023-12-29T01:45:47;3.6;3.4;3.0;2.4;;;;1.0;67.0;
78570;SPS30;67861;51.966;5.672;2023-12-29T01:48:16;3.8;3.6;3.1;2.4;;;;1.0;70.0;
78570;SPS30;67861;51.966;5.672;2023-12-29T01:50:44;4.6;4.3;3.7;2.8;;;;1.0;72.0;
78570;SPS30;67861;51.966;5.672;2023-12-29T01:53:13;4.0;3.7;3.2;2.5;;;;1.0;72.0;
78570;SPS30;67861;51.966;5.672;2023-12-29T01:55:42;4.1;3.8;3.3;2.6;;;;1.0;79.0;
78570;SPS30;67861;51.966;5.672;2023-12-29T01:58:13;3.2;3.0;2.7;2.1;;;;1.0;82.0;
78570;SPS30;67861;51.966;5.672;2023-12-29T02:00:42;3.5;3.2;2.8;2.2;;;;1.0;81.0;
78570;SPS30;67861;51.966;5.672;2023-12-29T02:03:11;3.3;3.1;2.7;2.1;;;;1.0;79.0;
78570;SPS30;67861;51.966;5.672;2023-12-29T02:05:39;3.5;3.3;2.9;2.3;;;;1.0;78.0;
78570;SPS30;67861;51.966;5.672;2023-12-29T02:08:13;3.4;3.2;2.8;2.3;;;;1.0;77.0;
78570;SPS30;67861;51.966;5.672;2023-12-29T02:10:41;3.6;3.4;2.9;2.3;;;;1.0;75.0;
78570;SPS30;67861;51.966;5.672;2023-12-29T02:13:12;3.7;3.4;3.0;2.2;;;;1.0;67.0;
78570;SPS30;67861;51.966;5.672;2023-12-29T02:15:41;3.9;3.6;3.1;2.3;;;;1.0;57.0;
78570;SPS30;67861;51.966;5.672;2023-12-29T02:18:11;3.8;3.6;3.1;2.4;;;;1.0;58.0;
78570;SPS30;67861;51.966;5.672;2023-12-29T02:20:44;3.5;3.3;2.8;2.1;;;;1.0;60.0;
78570;SPS30;67861;51.966;5.672;2023-12-29T02:23:13;3.1;2.9;2.5;1.9;;;;1.0;62.0;
78570;SPS30;67861;51.966;5.672;2023-12-29T02:25:42;3.0;2.8;2.5;2.0;;;;1.0;63.0;
78570;SPS30;67861;51.966;5.672;2023-12-29T02:28:13;3.0;2.9;2.6;2.1;;;;1.0;67.0;
78570;SPS30;67861;51.966;5.672;2023-12-29T02:30:51;3.0;2.9;2.5;1.9;;;;1.0;72.0;
78570;SPS30;67861;51.966;5.672;2023-12-29T02:33:28;4.0;3.8;3.2;2.4;;;;1.0;81.0;
78570;SPS30;67861;51.966;5.672;2023-12-29T02:36:03;3.3;3.1;2.7;2.1;;;;1.0;78.0;
78570;SPS30;67861;51.966;5.672;2023-12-29T02:38:33;3.8;3.6;3.1;2.4;;;;1.0;73.0;
78570;SPS30;67861;51.966;5.672;2023-12-29T02:41:02;2.9;2.7;2.4;1.8;;;;1.0;65.0;
78570;SPS30;67861;51.966;5.672;2023-12-29T02:43:32;4.3;4.0;3.5;2.7;;;;1.0;58.0;
78570;SPS30;67861;51.966;5.672;2023-12-29T02:46:01;3.5;3.3;2.9;2.3;;;;1.0;56.0;
78570;SPS30;67861;51.966;5.672;2023-12-29T02:48:30;4.0;3.7;3.2;2.4;;;;1.0;56.0;
78570;SPS30;67861;51.966;5.672;2023-12-29T02:50:58;4.0;3.7;3.2;2.4;;;;1.0;57.0;
78570;SPS30;67861;51.966;5.672;2023-12-29T02:53:27;3.6;3.4;2.9;2.3;;;;1.0;59.0;
78570;SPS30;67861;51.966;5.672;2023-12-29T02:55:55;3.5;3.3;2.9;2.3;;;;1.0;61.0;
78570;SPS30;67861;51.966;5.672;2023-12-29T02:58:24;4.3;4.0;3.5;2.7;;;;1.0;62.0;
78570;SPS30;67861;51.966;5.672;2023-12-29T03:00:52;4.8;4.5;3.8;2.8;;;;1.0;64.0;
78570;SPS30;67861;51.966;5.672;2023-12-29T03:03:21;4.8;4.5;3.7;2.7;;;;1.0;62.0;
78570;SPS30;67861;51.966;5.672;2023-12-29T03:05:49;3.8;3.5;3.0;2.3;;;;1.0;60.0;
78570;SPS30;67861;51.966;5.672;2023-12-29T03:08:18;3.9;3.7;3.1;2.3;;;;1.0;53.0;
78570;SPS30;67861;51.966;5.672;2023-12-29T03:10:46;4.1;3.8;3.2;2.3;;;;1.0;50.0;
78570;SPS30;67861;51.966;5.672;2023-12-29T03:13:15;4.6;4.2;3.5;2.5;;;;1.0;50.0;
78570;SPS30;67861;51.966;5.672;2023-12-29T03:15:43;4.8;4.4;3.7;2.7;;;;1.0;39.0;
78570;SPS30;67861;51.966;5.672;2023-12-29T03:18:12;4.2;3.9;3.3;2.5;;;;1.0;37.0;
78570;SPS30;67861;51.966;5.672;2023-12-29T03:20:40;4.1;3.8;3.1;2.2;;;;1.0;37.0;
78570;SPS30;67861;51.966;5.672;2023-12-29T03:23:09;5.2;4.8;4.0;2.8;;;;1.0;37.0;
78570;SPS30;67861;51.966;5.672;2023-12-29T03:25:38;4.9;4.5;3.6;2.5;;;;1.0;38.0;
78570;SPS30;67861;51.966;5.672;2023-12-29T03:28:06;4.2;3.8;3.1;2.1;;;;1.0;38.0;
78570;SPS30;67861;51.966;5.672;2023-12-29T03:30:35;4.8;4.4;3.5;2.3;;;;1.0;40.0;
78570;SPS30;67861;51.966;5.672;2023-12-29T03:33:03;4.6;4.2;3.4;2.3;;;;1.0;40.0;
78570;SPS30;67861;51.966;5.672;2023-12-29T03:35:32;5.1;4.7;3.8;2.5;;;;1.0;43.0;
78570;SPS30;67861;51.966;5.672;2023-12-29T03:38:01;5.7;5.2;4.2;2.9;;;;1.0;49.0;
78570;SPS30;67861;51.966;5.672;2023-12-29T03:40:29;6.4;5.9;4.7;3.1;;;;1.0;57.0;
78570;SPS30;67861;51.966;5.672;2023-12-29T03:42:58;6.3;5.7;4.6;3.0;;;;1.0;53.0;
78570;SPS30;67861;51.966;5.672;2023-12-29T03:45:26;4.5;4.1;3.2;2.1;;;;1.0;43.0;
78570;SPS30;67861;51.966;5.672;2023-12-29T03:47:55;6.0;5.5;4.3;2.8;;;;1.0;38.0;
78570;SPS30;67861;51.966;5.672;2023-12-29T03:50:23;5.9;5.3;4.2;2.8;;;;1.0;35.0;
78570;SPS30;67861;51.966;5.672;2023-12-29T03:52:52;7.7;7.0;5.5;3.5;;;;1.0;37.0;
78570;SPS30;67861;51.966;5.672;2023-12-29T03:55:20;6.7;6.2;5.0;3.3;;;;1.0;47.0;
78570;SPS30;67861;51.966;5.672;2023-12-29T03:57:48;6.8;6.2;4.8;3.0;;;;1.0;52.0;
78570;SPS30;67861;51.966;5.672;2023-12-29T04:00:17;5.4;4.9;3.9;2.6;;;;1.0;50.0;
78570;SPS30;67861;51.966;5.672;2023-12-29T04:02:46;6.3;5.7;4.5;2.9;;;;1.0;46.0;
78570;SPS30;67861;51.966;5.672;2023-12-29T04:05:14;5.0;4.6;3.6;2.3;;;;1.0;72.0;
78570;SPS30;67861;51.966;5.672;2023-12-29T04:07:43;7.0;6.3;4.8;2.9;;;;1.0;67.0;
78570;SPS30;67861;51.966;5.672;2023-12-29T04:10:11;6.2;5.6;4.3;2.6;;;;1.0;62.0;
78570;SPS30;67861;51.966;5.672;2023-12-29T04:12:40;6.1;5.6;4.4;2.8;;;;1.0;95.0;
78570;SPS30;67861;51.966;5.672;2023-12-29T04:15:09;7.3;6.6;5.1;3.2;;;;1.0;76.0;
78570;SPS30;67861;51.966;5.672;2023-12-29T04:17:37;4.8;4.4;3.5;2.3;;;;1.0;83.0;
78570;SPS30;67861;51.966;5.672;2023-12-29T04:20:07;6.2;5.6;4.5;2.9;;;;1.0;101.0;
78570;SPS30;67861;51.966;5.672;2023-12-29T04:22:38;6.5;5.9;4.7;3.1;;;;1.0;117.0;
78570;SPS30;67861;51.966;5.672;2023-12-29T04:25:07;7.3;6.6;5.2;3.3;;;;1.0;103.0;
78570;SPS30;67861;51.966;5.672;2023-12-29T04:27:35;5.3;4.8;3.9;2.6;;;;1.0;81.0;
78570;SPS30;67861;51.966;5.672;2023-12-29T04:30:04;6.4;5.8;4.7;3.1;;;;1.0;66.0;
78570;SPS30;67861;51.966;5.672;2023-12-29T04:32:35;6.2;5.6;4.5;2.9;;;;1.0;68.0;
78570;SPS30;67861;51.966;5.672;2023-12-29T04:35:05;6.4;5.9;4.7;3.1;;;;1.0;50.0;
78570;SPS30;67861;51.966;5.672;2023-12-29T04:37:36;7.0;6.4;5.0;3.2;;;;1.0;47.0;
78570;SPS30;67861;51.966;5.672;2023-12-29T04:40:05;6.0;5.4;4.3;2.7;;;;1.0;45.0;
78570;SPS30;67861;51.966;5.672;2023-12-29T04:42:34;6.7;6.1;4.8;3.1;;;;1.0;38.0;
78570;SPS30;67861;51.966;5.672;2023-12-29T04:45:03;5.2;4.7;3.8;2.5;;;;1.0;39.0;
78570;SPS30;67861;51.966;5.672;2023-12-29T04:47:32;6.3;5.8;4.5;2.8;;;;1.0;36.0;
78570;SPS30;67861;51.966;5.672;2023-12-29T04:50:01;6.8;6.2;4.9;3.1;;;;1.0;38.0;
78570;SPS30;67861;51.966;5.672;2023-12-29T04:52:29;5.7;5.2;4.1;2.7;;;;1.0;39.0;
78570;SPS30;67861;51.966;5.672;2023-12-29T04:54:58;5.8;5.3;4.2;2.7;;;;1.0;48.0;
78570;SPS30;67861;51.966;5.672;2023-12-29T04:57:26;5.9;5.4;4.3;2.8;;;;1.0;50.0;
78570;SPS30;67861;51.966;5.672;2023-12-29T04:59:55;6.0;5.5;4.4;2.9;;;;1.0;50.0;
78570;SPS30;67861;51.966;5.672;2023-12-29T05:02:23;6.0;5.6;4.5;3.1;;;;1.0;42.0;
78570;SPS30;67861;51.966;5.672;2023-12-29T05:04:52;6.1;5.6;4.5;3.0;;;;1.0;38.0;
78570;SPS30;67861;51.966;5.672;2023-12-29T05:07:21;5.3;4.8;3.7;2.4;;;;1.0;37.0;
78570;SPS30;67861;51.966;5.672;2023-12-29T05:09:49;5.5;5.0;3.9;2.4;;;;1.0;39.0;
78570;SPS30;67861;51.966;5.672;2023-12-29T05:12:18;6.4;5.8;4.4;2.6;;;;1.0;40.0;
78570;SPS30;67861;51.966;5.672;2023-12-29T05:14:46;8.3;7.4;5.7;3.3;;;;1.0;40.0;
78570;SPS30;67861;51.966;5.672;2023-12-29T05:17:15;6.0;5.4;4.2;2.6;;;;1.0;40.0;
78570;SPS30;67861;51.966;5.672;2023-12-29T05:19:43;8.4;7.6;5.7;3.3;;;;1.0;40.0;
78570;SPS30;67861;51.966;5.672;2023-12-29T05:22:12;7.6;6.8;5.2;3.0;;;;1.0;40.0;
78570;SPS30;67861;51.966;5.672;2023-12-29T05:24:43;7.0;6.3;4.7;2.7;;;;1.0;39.0;
78570;SPS30;67861;51.966;5.672;2023-12-29T05:27:12;6.3;5.7;4.4;2.6;;;;1.0;39.0;
78570;SPS30;67861;51.966;5.672;2023-12-29T05:29:41;6.6;6.0;4.6;2.8;;;;1.0;37.0;
78570;SPS30;67861;51.966;5.672;2023-12-29T05:32:10;7.6;6.8;5.2;3.0;;;;1.0;36.0;
78570;SPS30;67861;51.966;5.672;2023-12-29T05:34:38;7.1;6.4;4.9;3.0;;;;1.0;36.0;
78570;SPS30;67861;51.966;5.672;2023-12-29T05:37:07;6.2;5.6;4.4;2.7;;;;1.0;36.0;
78570;SPS30;67861;51.966;5.672;2023-12-29T05:39:35;6.4;5.8;4.4;2.7;;;;1.0;42.0;
78570;SPS30;67861;51.966;5.672;2023-12-29T05:42:04;6.3;5.7;4.4;2.8;;;;1.0;48.0;
78570;SPS30;67861;51.966;5.672;2023-12-29T05:44:35;7.4;6.7;5.1;3.0;;;;1.0;48.0;
78570;SPS30;67861;51.966;5.672;2023-12-29T05:47:04;7.2;6.5;4.9;2.8;;;;1.0;47.0;
78570;SPS30;67861;51.966;5.672;2023-12-29T05:49:33;6.7;6.0;4.5;2.6;;;;1.0;43.0;
78570;SPS30;67861;51.966;5.672;2023-12-29T05:52:05;6.5;5.9;4.5;2.6;;;;1.0;32.0;
78570;SPS30;67861;51.966;5.672;2023-12-29T05:54:34;6.3;5.7;4.4;2.6;;;;1.0;33.0;
78570;SPS30;67861;51.966;5.672;2023-12-29T05:57:03;7.0;6.3;4.7;2.7;;;;1.0;36.0;
78570;SPS30;67861;51.966;5.672;2023-12-29T05:59:32;7.7;6.9;5.3;3.1;;;;1.0;39.0;
78570;SPS30;67861;51.966;5.672;2023-12-29T06:02:00;6.5;5.8;4.5;2.7;;;;1.0;40.0;
78570;SPS30;67861;51.966;5.672;2023-12-29T06:04:29;6.0;5.4;4.2;2.6;;;;1.0;39.0;
78570;SPS30;67861;51.966;5.672;2023-12-29T06:06:58;6.7;6.1;4.7;2.9;;;;1.0;39.0;
78570;SPS30;67861;51.966;5.672;2023-12-29T06:09:27;7.4;6.6;5.1;3.0;;;;1.0;38.0;
78570;SPS30;67861;51.966;5.672;2023-12-29T06:11:55;6.1;5.5;4.3;2.6;;;;1.0;37.0;
78570;SPS30;67861;51.966;5.672;2023-12-29T06:14:24;7.3;6.6;5.1;3.2;;;;1.0;40.0;
78570;SPS30;67861;51.966;5.672;2023-12-29T06:16:53;5.6;5.1;4.0;2.5;;;;1.0;42.0;
78570;SPS30;67861;51.966;5.672;2023-12-29T06:19:22;6.5;5.9;4.6;3.0;;;;1.0;42.0;
78570;SPS30;67861;51.966;5.672;2023-12-29T06:21:50;5.1;4.6;3.6;2.3;;;;1.0;42.0;
78570;SPS30;67861;51.966;5.672;2023-12-29T06:24:19;7.0;6.3;4.9;3.0;;;;1.0;41.0;
78570;SPS30;67861;51.966;5.672;2023-12-29T06:26:49;6.7;6.1;4.7;2.8;;;;1.0;40.0;
78570;SPS30;67861;51.966;5.672;2023-12-29T06:29:17;5.9;5.3;4.1;2.5;;;;1.0;41.0;
78570;SPS30;67861;51.966;5.672;2023-12-29T06:31:46;5.4;4.9;3.9;2.6;;;;1.0;44.0;
78570;SPS30;67861;51.966;5.672;2023-12-29T06:34:14;7.1;6.5;5.3;3.7;;;;1.0;44.0;
78570;SPS30;67861;51.966;5.672;2023-12-29T06:36:43;6.0;5.5;4.4;2.9;;;;1.0;48.0;
78570;SPS30;67861;51.966;5.672;2023-12-29T06:39:11;5.4;4.9;3.9;2.5;;;;1.0;52.0;
78570;SPS30;67861;51.966;5.672;2023-12-29T06:41:42;6.3;5.7;4.5;2.9;;;;1.0;51.0;
78570;SPS30;67861;51.966;5.672;2023-12-29T06:44:10;6.3;5.8;4.7;3.2;;;;1.0;51.0;
78570;SPS30;67861;51.966;5.672;2023-12-29T06:46:41;8.7;8.1;7.0;5.3;;;;1.0;55.0;
78570;SPS30;67861;51.966;5.672;2023-12-29T06:49:11;5.2;4.9;4.2;3.3;;;;1.0;59.0;
78570;SPS30;67861;51.966;5.672;2023-12-29T06:51:40;5.1;4.9;4.3;3.5;;;;1.0;61.0;
78570;SPS30;67861;51.966;5.672;2023-12-29T06:54:08;4.9;4.6;4.2;3.5;;;;1.0;77.0;
78570;SPS30;67861;51.966;5.672;2023-12-29T06:56:37;3.9;3.7;3.3;2.6;;;;1.0;73.0;
78570;SPS30;67861;51.966;5.672;2023-12-29T06:59:06;3.8;3.6;3.1;2.3;;;;1.0;68.0;
78570;SPS30;67861;51.966;5.672;2023-12-29T07:01:35;4.3;4.0;3.4;2.6;;;;1.0;59.0;
78570;SPS30;67861;51.966;5.672;2023-12-29T07:04:07;3.9;3.6;3.0;2.2;;;;1.0;57.0;
78570;SPS30;67861;51.966;5.672;2023-12-29T07:06:36;3.4;3.2;2.7;2.0;;;;1.0;58.0;
78570;SPS30;67861;51.966;5.672;2023-12-29T07:09:05;3.6;3.3;2.7;1.9;;;;1.0;59.0;
78570;SPS30;67861;51.966;5.672;2023-12-29T07:11:34;3.8;3.5;2.9;2.0;;;;1.0;58.0;
78570;SPS30;67861;51.966;5.672;2023-12-29T07:14:03;4.7;4.3;3.6;2.5;;;;1.0;66.0;
78570;SPS30;67861;51.966;5.672;2023-12-29T07:16:32;4.2;4.0;3.4;2.6;;;;1.0;105.0;
78570;SPS30;67861;51.966;5.672;2023-12-29T07:19:02;2.9;2.7;2.4;1.8;;;;1.0;95.0;
78570;SPS30;67861;51.966;5.672;2023-12-29T07:21:31;3.4;3.2;2.8;2.1;;;;1.0;99.0;
78570;SPS30;67861;51.966;5.672;2023-12-29T07:24:00;3.7;3.4;2.9;2.2;;;;1.0;95.0;
78570;SPS30;67861;51.966;5.672;2023-12-29T07:26:29;3.7;3.5;2.9;2.2;;;;1.0;89.0;
78570;SPS30;67861;51.966;5.672;2023-12-29T07:28:57;4.6;4.3;3.6;2.7;;;;1.0;111.0;
78570;SPS30;67861;51.966;5.672;2023-12-29T07:31:28;4.9;4.6;3.9;2.9;;;;1.0;108.0;
78570;SPS30;67861;51.966;5.672;2023-12-29T07:33:56;4.9;4.7;4.2;3.4;;;;1.0;122.0;
78570;SPS30;67861;51.966;5.672;2023-12-29T07:36:27;5.1;5.1;4.9;4.5;;;;1.0;145.0;
78570;SPS30;67861;51.966;5.672;2023-12-29T07:38:55;4.2;4.2;4.1;3.9;;;;1.0;175.0;
78570;SPS30;67861;51.966;5.672;2023-12-29T07:41:24;4.2;4.2;4.0;3.7;;;;1.0;219.0;
78570;SPS30;67861;51.966;5.672;2023-12-29T07:43:53;3.5;3.5;3.4;3.1;;;;1.0;249.0;
78570;SPS30;67861;51.966;5.672;2023-12-29T07:46:27;3.7;3.6;3.5;3.1;;;;1.0;236.0;
78570;SPS30;67861;51.966;5.672;2023-12-29T07:48:55;2.7;2.6;2.5;2.1;;;;1.0;236.0;
78570;SPS30;67861;51.966;5.672;2023-12-29T07:51:24;4.2;4.0;3.7;3.2;;;;1.0;255.0;
78570;SPS30;67861;51.966;5.672;2023-12-29T07:53:52;3.8;3.7;3.4;2.9;;;;1.0;261.0;
78570;SPS30;67861;51.966;5.672;2023-12-29T07:56:21;4.1;3.9;3.6;3.0;;;;1.0;264.0;
78570;SPS30;67861;51.966;5.672;2023-12-29T07:58:49;4.8;4.6;4.2;3.5;;;;1.0;331.0;
78570;SPS30;67861;51.966;5.672;2023-12-29T08:01:18;4.0;3.9;3.5;3.0;;;;1.0;357.0;
78570;SPS30;67861;51.966;5.672;2023-12-29T08:03:48;4.8;4.6;4.3;3.7;;;;1.0;366.0;
78570;SPS30;67861;51.966;5.672;2023-12-29T08:06:17;3.9;3.8;3.6;3.2;;;;1.0;366.0;
78570;SPS30;67861;51.966;5.672;2023-12-29T08:08:47;3.5;3.4;3.3;2.9;;;;1.0;357.0;
78570;SPS30;67861;51.966;5.672;2023-12-29T08:11:16;2.8;2.7;2.5;2.2;;;;1.0;343.0;
78570;SPS30;67861;51.966;5.672;2023-12-29T08:13:46;4.1;3.9;3.7;3.3;;;;1.0;254.0;
78570;SPS30;67861;51.966;5.672;2023-12-29T08:16:15;3.3;3.2;3.1;2.7;;;;1.0;267.0;
78570;SPS30;67861;51.966;5.672;2023-12-29T08:18:45;3.1;3.0;2.8;2.5;;;;1.0;319.0;
78570;SPS30;67861;51.966;5.672;2023-12-29T08:21:18;3.3;3.2;3.0;2.6;;;;1.0;353.0;
78570;SPS30;67861;51.966;5.672;2023-12-29T08:23:47;3.0;2.9;2.8;2.5;;;;1.0;372.0;
78570;SPS30;67861;51.966;5.672;2023-12-29T08:26:16;2.6;2.6;2.4;2.2;;;;1.0;342.0;
78570;SPS30;67861;51.966;5.672;2023-12-29T08:28:45;2.9;2.8;2.7;2.4;;;;1.0;238.0;
78570;SPS30;67861;51.966;5.672;2023-12-29T08:31:14;3.6;3.5;3.2;2.8;;;;1.0;201.0;
78570;SPS30;67861;51.966;5.672;2023-12-29T08:33:43;3.7;3.5;3.2;2.8;;;;1.0;182.0;
78570;SPS30;67861;51.966;5.672;2023-12-29T08:36:12;4.1;3.9;3.6;3.0;;;;1.0;183.0;
78570;SPS30;67861;51.966;5.672;2023-12-29T08:38:41;3.0;2.9;2.7;2.3;;;;1.0;186.0;
78570;SPS30;67861;51.966;5.672;2023-12-29T08:41:09;3.1;3.0;2.8;2.4;;;;1.0;187.0;
78570;SPS30;67861;51.966;5.672;2023-12-29T08:43:44;2.6;2.5;2.3;2.0;;;;1.0;199.0;
78570;SPS30;67861;51.966;5.672;2023-12-29T08:46:12;3.1;3.0;2.9;2.5;;;;1.0;187.0;
78570;SPS30;67861;51.966;5.672;2023-12-29T08:48:41;3.8;3.7;3.5;3.2;;;;1.0;196.0;
78570;SPS30;67861;51.966;5.672;2023-12-29T08:51:10;2.4;2.3;2.2;2.0;;;;1.0;195.0;
78570;SPS30;67861;51.966;5.672;2023-12-29T08:53:40;3.5;3.4;3.2;2.9;;;;1.0;171.0;
78570;SPS30;67861;51.966;5.672;2023-12-29T08:56:08;2.8;2.8;2.6;2.4;;;;1.0;149.0;
78570;SPS30;67861;51.966;5.672;2023-12-29T08:58:36;2.5;2.5;2.4;2.1;;;;1.0;164.0;
78570;SPS30;67861;51.966;5.672;2023-12-29T09:01:05;2.1;2.1;2.0;1.8;;;;1.0;144.0;
78570;SPS30;67861;51.966;5.672;2023-12-29T09:03:33;3.9;3.8;3.6;3.2;;;;1.0;140.0;
78570;SPS30;67861;51.966;5.672;2023-12-29T09:06:02;3.2;3.2;3.1;2.9;;;;1.0;143.0;
78570;SPS30;67861;51.966;5.672;2023-12-29T09:08:30;2.8;2.7;2.7;2.5;;;;1.0;143.0;
78570;SPS30;67861;51.966;5.672;2023-12-29T09:10:59;2.5;2.5;2.4;2.2;;;;1.0;170.0;
78570;SPS30;67861;51.966;5.672;2023-12-29T09:13:29;2.3;2.3;2.2;2.0;;;;1.0;146.0;
78570;SPS30;67861;51.966;5.672;2023-12-29T09:16:00;2.2;2.1;2.0;1.8;;;;1.0;135.0;
78570;SPS30;67861;51.966;5.672;2023-12-29T09:18:28;2.9;2.8;2.7;2.5;;;;1.0;147.0;
78570;SPS30;67861;51.966;5.672;2023-12-29T09:20:57;2.2;2.1;2.0;1.9;;;;1.0;173.0;
78570;SPS30;67861;51.966;5.672;2023-12-29T09:23:26;2.7;2.6;2.6;2.3;;;;1.0;168.0;
78570;SPS30;67861;51.966;5.672;2023-12-29T09:25:54;2.4;2.4;2.3;2.1;;;;1.0;166.0;
78570;SPS30;67861;51.966;5.672;2023-12-29T09:28:23;2.9;2.8;2.7;2.5;;;;1.0;165.0;
78570;SPS30;67861;51.966;5.672;2023-12-29T09:30:51;2.0;2.0;1.9;1.8;;;;1.0;217.0;
78570;SPS30;67861;51.966;5.672;2023-12-29T09:33:20;2.1;2.1;2.0;1.9;;;;1.0;192.0;
78570;SPS30;67861;51.966;5.672;2023-12-29T09:35:49;2.2;2.2;2.1;2.0;;;;1.0;193.0;
78570;SPS30;67861;51.966;5.672;2023-12-29T09:38:18;2.5;2.5;2.4;2.1;;;;1.0;200.0;
78570;SPS30;67861;51.966;5.672;2023-12-29T09:40:47;2.3;2.2;2.1;1.9;;;;1.0;207.0;
78570;SPS30;67861;51.966;5.672;2023-12-29T09:43:17;1.9;1.8;1.8;1.6;;;;1.0;202.0;
78570;SPS30;67861;51.966;5.672;2023-12-29T09:45:48;2.6;2.6;2.4;2.1;;;;1.0;176.0;
78570;SPS30;67861;51.966;5.672;2023-12-29T09:48:20;2.6;2.5;2.4;2.0;;;;1.0;196.0;
78570;SPS30;67861;51.966;5.672;2023-12-29T09:50:52;2.0;2.0;1.9;1.7;;;;1.0;204.0;
78570;SPS30;67861;51.966;5.672;2023-12-29T09:53:22;2.0;1.9;1.8;1.6;;;;1.0;202.0;
78570;SPS30;67861;51.966;5.672;2023-12-29T09:55:53;2.5;2.4;2.2;2.0;;;;1.0;190.0;
78570;SPS30;67861;51.966;5.672;2023-12-29T09:58:24;2.1;2.1;2.0;1.8;;;;1.0;186.0;
78570;SPS30;67861;51.966;5.672;2023-12-29T10:00:53;1.8;1.8;1.7;1.5;;;;1.0;200.0;
78570;SPS30;67861;51.966;5.672;2023-12-29T10:03:22;2.3;2.2;2.1;1.9;;;;1.0;181.0;
78570;SPS30;67861;51.966;5.672;2023-12-29T10:05:54;2.0;2.0;1.9;1.7;;;;1.0;176.0;
78570;SPS30;67861;51.966;5.672;2023-12-29T10:08:24;2.2;2.1;2.0;1.8;;;;1.0;184.0;
78570;SPS30;67861;51.966;5.672;2023-12-29T10:10:55;2.3;2.3;2.2;1.9;;;;1.0;164.0;
78570;SPS30;67861;51.966;5.672;2023-12-29T10:13:29;1.7;1.7;1.7;1.5;;;;1.0;160.0;
78570;SPS30;67861;51.966;5.672;2023-12-29T10:16:04;1.7;1.7;1.7;1.5;;;;1.0;162.0;
78570;SPS30;67861;51.966;5.672;2023-12-29T10:18:44;1.9;1.9;1.8;1.7;;;;1.0;168.0;
78570;SPS30;67861;51.966;5.672;2023-12-29T10:21:20;2.4;2.4;2.3;2.2;;;;1.0;199.0;
78570;SPS30;67861;51.966;5.672;2023-12-29T10:23:56;2.5;2.4;2.4;2.2;;;;1.0;239.0;
78570;SPS30;67861;51.966;5.672;2023-12-29T10:26:31;2.3;2.3;2.3;2.2;;;;1.0;242.0;
78570;SPS30;67861;51.966;5.672;2023-12-29T10:29:00;2.1;2.1;2.1;2.0;;;;1.0;228.0;
78570;SPS30;67861;51.966;5.672;2023-12-29T10:31:29;2.3;2.3;2.3;2.2;;;;1.0;210.0;
78570;SPS30;67861;51.966;5.672;2023-12-29T10:34:18;2.1;2.1;2.1;2.0;;;;1.0;219.0;
78570;SPS30;67861;51.966;5.672;2023-12-29T10:36:52;1.6;1.6;1.6;1.5;;;;1.0;185.0;
78570;SPS30;67861;51.966;5.672;2023-12-29T10:39:21;1.5;1.5;1.5;1.5;;;;1.0;167.0;
78570;SPS30;67861;51.966;5.672;2023-12-29T10:41:50;1.6;1.6;1.6;1.5;;;;1.0;171.0;
78570;SPS30;67861;51.966;5.672;2023-12-29T10:44:36;1.6;1.6;1.6;1.6;;;;1.0;162.0;
78570;SPS30;67861;51.966;5.672;2023-12-29T10:47:09;2.1;2.1;2.1;2.0;;;;1.0;163.0;
78570;SPS30;67861;51.966;5.672;2023-12-29T10:49:38;1.3;1.3;1.3;1.3;;;;1.0;163.0;
78570;SPS30;67861;51.966;5.672;2023-12-29T10:52:13;1.6;1.6;1.6;1.6;;;;1.0;166.0;
78570;SPS30;67861;51.966;5.672;2023-12-29T10:54:42;1.7;1.7;1.7;1.6;;;;1.0;182.0;
78570;SPS30;67861;51.966;5.672;2023-12-29T10:57:12;1.8;1.8;1.8;1.7;;;;1.0;207.0;
78570;SPS30;67861;51.966;5.672;2023-12-29T10:59:41;2.2;2.2;2.2;2.1;;;;1.0;243.0;
78570;SPS30;67861;51.966;5.672;2023-12-29T11:02:12;2.9;2.9;2.8;2.7;;;;1.0;263.0;
78570;SPS30;67861;51.966;5.672;2023-12-29T11:04:44;2.2;2.2;2.2;2.0;;;;1.0;228.0;
78570;SPS30;67861;51.966;5.672;2023-12-29T11:07:13;1.8;1.8;1.8;1.7;;;;1.0;211.0;
78570;SPS30;67861;51.966;5.672;2023-12-29T11:09:42;1.8;1.8;1.7;1.6;;;;1.0;220.0;
78570;SPS30;67861;51.966;5.672;2023-12-29T11:12:12;2.0;2.0;2.0;1.9;;;;1.0;173.0;
78570;SPS30;67861;51.966;5.672;2023-12-29T11:14:41;2.1;2.1;2.1;2.0;;;;1.0;159.0;
78570;SPS30;67861;51.966;5.672;2023-12-29T11:17:14;2.1;2.1;2.1;2.0;;;;1.0;118.0;
78570;SPS30;67861;51.966;5.672;2023-12-29T11:19:44;2.0;2.0;2.0;1.9;;;;1.0;131.0;
78570;SPS30;67861;51.966;5.672;2023-12-29T11:22:15;1.9;1.9;1.9;1.8;;;;1.0;138.0;
78570;SPS30;67861;51.966;5.672;2023-12-29T11:24:47;2.5;2.5;2.4;2.3;;;;1.0;148.0;
78570;SPS30;67861;51.966;5.672;2023-12-29T11:27:16;1.8;1.8;1.8;1.7;;;;1.0;191.0;
78570;SPS30;67861;51.966;5.672;2023-12-29T11:29:45;2.4;2.4;2.3;2.0;;;;1.0;179.0;
78570;SPS30;67861;51.966;5.672;2023-12-29T11:32:16;2.1;2.0;2.0;1.8;;;;1.0;164.0;
78570;SPS30;67861;51.966;5.672;2023-12-29T11:34:52;2.2;2.2;2.1;1.9;;;;1.0;137.0;
78570;SPS30;67861;51.966;5.672;2023-12-29T11:37:26;1.9;1.9;1.8;1.6;;;;1.0;145.0;
78570;SPS30;67861;51.966;5.672;2023-12-29T11:40:10;2.1;2.1;2.0;1.8;;;;1.0;157.0;
78570;SPS30;67861;51.966;5.672;2023-12-29T11:42:48;2.1;2.0;1.9;1.7;;;;1.0;125.0;
78570;SPS30;67861;51.966;5.672;2023-12-29T11:45:27;1.8;1.8;1.6;1.4;;;;1.0;128.0;
78570;SPS30;67861;51.966;5.672;2023-12-29T11:47:58;2.4;2.3;2.2;1.9;;;;1.0;130.0;
78570;SPS30;67861;51.966;5.672;2023-12-29T11:50:29;2.2;2.2;2.0;1.7;;;;1.0;154.0;
78570;SPS30;67861;51.966;5.672;2023-12-29T11:52:59;2.9;2.7;2.5;2.0;;;;1.0;155.0;
78570;SPS30;67861;51.966;5.672;2023-12-29T11:55:30;2.8;2.7;2.4;2.0;;;;1.0;168.0;
78570;SPS30;67861;51.966;5.672;2023-12-29T11:57:59;2.9;2.8;2.6;2.2;;;;1.0;197.0;
78570;SPS30;67861;51.966;5.672;2023-12-29T12:00:42;2.4;2.4;2.2;1.9;;;;1.0;189.0;
78570;SPS30;67861;51.966;5.672;2023-12-29T12:03:16;3.9;3.8;3.5;2.9;;;;1.0;186.0;
78570;SPS30;67861;51.966;5.672;2023-12-29T12:05:48;4.4;4.2;3.9;3.3;;;;1.0;185.0;
78570;SPS30;67861;51.966;5.672;2023-12-29T12:08:28;2.6;2.5;2.3;1.9;;;;1.0;196.0;
78570;SPS30;67861;51.966;5.672;2023-12-29T12:11:41;4.3;4.1;3.8;3.2;;;;1.0;216.0;
78570;SPS30;67861;51.966;5.672;2023-12-29T12:13:50;4.3;4.1;3.7;3.0;;;;1.0;250.0;
78570;SPS30;67861;51.966;5.672;2023-12-29T12:16:48;3.0;2.8;2.5;2.0;;;;1.0;267.0;
78570;SPS30;67861;51.966;5.672;2023-12-29T12:19:19;3.6;3.4;3.0;2.4;;;;1.0;259.0;
78570;SPS30;67861;51.966;5.672;2023-12-29T12:21:53;3.3;3.1;2.7;2.1;;;;1.0;284.0;